sensor_id;sensor_type;location;lat;lon;timestamp;P1;durP1;ratioP1;P2;durP2;ratioP2
68192;SDS011;55012;47.562;18.414;2022-12-10T00:01:45;55.60;;;17.80;;
68192;SDS011;55012;47.562;18.414;2022-12-10T00:04:11;54.78;;;18.83;;
68192;SDS011;55012;47.562;18.414;2022-12-10T00:06:37;58.00;;;19.00;;
68192;SDS011;55012;47.562;18.414;2022-12-10T00:09:06;61.00;;;18.60;;
68192;SDS011;55012;47.562;18.414;2022-12-10T00:11:33;64.50;;;19.27;;
68192;SDS011;55012;47.562;18.414;2022-12-10T00:13:59;87.80;;;19.75;;
68192;SDS011;55012;47.562;18.414;2022-12-10T00:16:25;158.57;;;22.38;;
68192;SDS011;55012;47.562;18.414;2022-12-10T00:18:52;225.15;;;27.42;;
68192;SDS011;55012;47.562;18.414;2022-12-10T00:21:19;274.58;;;30.95;;
68192;SDS011;55012;47.562;18.414;2022-12-10T00:23:49;184.73;;;25.73;;
68192;SDS011;55012;47.562;18.414;2022-12-10T00:26:16;174.57;;;23.83;;
68192;SDS011;55012;47.562;18.414;2022-12-10T00:28:46;93.05;;;22.30;;
68192;SDS011;55012;47.562;18.414;2022-12-10T00:31:13;56.45;;;16.92;;
68192;SDS011;55012;47.562;18.414;2022-12-10T00:33:41;77.75;;;19.23;;
68192;SDS011;55012;47.562;18.414;2022-12-10T00:36:09;58.67;;;18.27;;
68192;SDS011;55012;47.562;18.414;2022-12-10T00:38:36;73.22;;;18.55;;
68192;SDS011;55012;47.562;18.414;2022-12-10T00:41:03;72.55;;;18.13;;
68192;SDS011;55012;47.562;18.414;2022-12-10T00:43:29;64.30;;;17.00;;
68192;SDS011;55012;47.562;18.414;2022-12-10T00:45:54;58.88;;;16.67;;
68192;SDS011;55012;47.562;18.414;2022-12-10T00:48:20;49.60;;;15.60;;
68192;SDS011;55012;47.562;18.414;2022-12-10T00:53:22;43.70;;;15.27;;
68192;SDS011;55012;47.562;18.414;2022-12-10T00:55:48;43.00;;;15.20;;
68192;SDS011;55012;47.562;18.414;2022-12-10T00:58:14;50.75;;;14.80;;
68192;SDS011;55012;47.562;18.414;2022-12-10T01:00:40;49.30;;;14.93;;
68192;SDS011;55012;47.562;18.414;2022-12-10T01:03:05;43.00;;;14.95;;
68192;SDS011;55012;47.562;18.414;2022-12-10T01:05:30;49.08;;;15.60;;
68192;SDS011;55012;47.562;18.414;2022-12-10T01:07:56;43.08;;;14.43;;
68192;SDS011;55012;47.562;18.414;2022-12-10T01:10:22;45.90;;;14.75;;
68192;SDS011;55012;47.562;18.414;2022-12-10T01:12:47;45.15;;;14.20;;
68192;SDS011;55012;47.562;18.414;2022-12-10T01:15:13;36.72;;;12.15;;
68192;SDS011;55012;47.562;18.414;2022-12-10T01:17:38;48.85;;;13.30;;
68192;SDS011;55012;47.562;18.414;2022-12-10T01:20:04;37.35;;;10.80;;
68192;SDS011;55012;47.562;18.414;2022-12-10T01:22:29;119.90;;;16.02;;
68192;SDS011;55012;47.562;18.414;2022-12-10T01:24:55;115.10;;;16.00;;
68192;SDS011;55012;47.562;18.414;2022-12-10T01:27:20;151.45;;;18.35;;
68192;SDS011;55012;47.562;18.414;2022-12-10T01:29:46;123.15;;;16.73;;
68192;SDS011;55012;47.562;18.414;2022-12-10T01:32:11;38.42;;;11.80;;
68192;SDS011;55012;47.562;18.414;2022-12-10T01:34:37;32.97;;;11.63;;
68192;SDS011;55012;47.562;18.414;2022-12-10T01:37:02;37.45;;;11.27;;
68192;SDS011;55012;47.562;18.414;2022-12-10T01:39:28;33.13;;;10.57;;
68192;SDS011;55012;47.562;18.414;2022-12-10T01:41:55;27.15;;;8.80;;
68192;SDS011;55012;47.562;18.414;2022-12-10T01:46:48;44.03;;;11.85;;
68192;SDS011;55012;47.562;18.414;2022-12-10T01:49:18;44.45;;;11.70;;
68192;SDS011;55012;47.562;18.414;2022-12-10T01:51:47;67.75;;;11.57;;
68192;SDS011;55012;47.562;18.414;2022-12-10T01:54:17;194.02;;;16.75;;
68192;SDS011;55012;47.562;18.414;2022-12-10T01:56:58;321.40;;;19.30;;
68192;SDS011;55012;47.562;18.414;2022-12-10T01:59:24;420.38;;;25.02;;
68192;SDS011;55012;47.562;18.414;2022-12-10T02:12:42;557.88;;;31.42;;
68192;SDS011;55012;47.562;18.414;2022-12-10T02:15:18;142.70;;;12.57;;
68192;SDS011;55012;47.562;18.414;2022-12-10T02:18:21;533.03;;;29.90;;
68192;SDS011;55012;47.562;18.414;2022-12-10T02:20:47;466.73;;;24.67;;
68192;SDS011;55012;47.562;18.414;2022-12-10T02:23:38;326.13;;;21.85;;
68192;SDS011;55012;47.562;18.414;2022-12-10T02:26:09;544.72;;;28.63;;
68192;SDS011;55012;47.562;18.414;2022-12-10T02:31:44;495.95;;;28.95;;
68192;SDS011;55012;47.562;18.414;2022-12-10T02:34:13;550.50;;;29.83;;
68192;SDS011;55012;47.562;18.414;2022-12-10T02:36:41;251.23;;;21.55;;
68192;SDS011;55012;47.562;18.414;2022-12-10T02:39:10;344.55;;;22.92;;
68192;SDS011;55012;47.562;18.414;2022-12-10T02:41:40;511.30;;;30.10;;
68192;SDS011;55012;47.562;18.414;2022-12-10T02:44:11;421.13;;;26.17;;
68192;SDS011;55012;47.562;18.414;2022-12-10T02:46:40;798.58;;;37.92;;
68192;SDS011;55012;47.562;18.414;2022-12-10T02:49:08;500.08;;;29.52;;
68192;SDS011;55012;47.562;18.414;2022-12-10T02:51:36;595.53;;;32.72;;
68192;SDS011;55012;47.562;18.414;2022-12-10T02:54:03;423.45;;;27.60;;
68192;SDS011;55012;47.562;18.414;2022-12-10T02:56:34;550.28;;;32.33;;
68192;SDS011;55012;47.562;18.414;2022-12-10T02:59:14;404.60;;;26.38;;
68192;SDS011;55012;47.562;18.414;2022-12-10T03:04:23;154.70;;;17.88;;
68192;SDS011;55012;47.562;18.414;2022-12-10T03:06:55;501.77;;;28.30;;
68192;SDS011;55012;47.562;18.414;2022-12-10T03:09:28;396.08;;;26.50;;
68192;SDS011;55012;47.562;18.414;2022-12-10T03:11:58;93.10;;;13.52;;
68192;SDS011;55012;47.562;18.414;2022-12-10T03:14:41;161.05;;;19.98;;
68192;SDS011;55012;47.562;18.414;2022-12-10T03:17:07;170.48;;;18.77;;
68192;SDS011;55012;47.562;18.414;2022-12-10T03:19:38;118.40;;;19.13;;
68192;SDS011;55012;47.562;18.414;2022-12-10T03:22:07;88.93;;;16.85;;
68192;SDS011;55012;47.562;18.414;2022-12-10T03:24:35;86.38;;;17.65;;
68192;SDS011;55012;47.562;18.414;2022-12-10T03:27:01;90.40;;;17.92;;
68192;SDS011;55012;47.562;18.414;2022-12-10T03:29:31;77.20;;;15.68;;
68192;SDS011;55012;47.562;18.414;2022-12-10T03:32:00;95.38;;;18.77;;
68192;SDS011;55012;47.562;18.414;2022-12-10T03:34:27;91.40;;;18.30;;
68192;SDS011;55012;47.562;18.414;2022-12-10T03:36:53;77.32;;;17.63;;
68192;SDS011;55012;47.562;18.414;2022-12-10T03:39:19;84.70;;;18.58;;
68192;SDS011;55012;47.562;18.414;2022-12-10T03:41:45;74.88;;;17.52;;
68192;SDS011;55012;47.562;18.414;2022-12-10T03:44:10;66.05;;;15.07;;
68192;SDS011;55012;47.562;18.414;2022-12-10T03:46:36;92.20;;;20.95;;
68192;SDS011;55012;47.562;18.414;2022-12-10T03:49:02;74.90;;;17.85;;
68192;SDS011;55012;47.562;18.414;2022-12-10T03:51:29;72.13;;;18.20;;
68192;SDS011;55012;47.562;18.414;2022-12-10T03:53:54;76.35;;;18.83;;
68192;SDS011;55012;47.562;18.414;2022-12-10T03:56:20;73.68;;;20.42;;
68192;SDS011;55012;47.562;18.414;2022-12-10T03:58:46;84.75;;;21.85;;
68192;SDS011;55012;47.562;18.414;2022-12-10T04:01:12;55.25;;;15.57;;
68192;SDS011;55012;47.562;18.414;2022-12-10T04:03:39;84.60;;;21.88;;
68192;SDS011;55012;47.562;18.414;2022-12-10T04:06:06;62.20;;;19.30;;
68192;SDS011;55012;47.562;18.414;2022-12-10T04:08:34;69.65;;;20.00;;
68192;SDS011;55012;47.562;18.414;2022-12-10T04:11:03;70.78;;;20.00;;
68192;SDS011;55012;47.562;18.414;2022-12-10T04:13:33;67.22;;;18.27;;
68192;SDS011;55012;47.562;18.414;2022-12-10T04:16:18;80.05;;;22.13;;
68192;SDS011;55012;47.562;18.414;2022-12-10T04:18:53;87.75;;;24.52;;
68192;SDS011;55012;47.562;18.414;2022-12-10T04:21:20;74.97;;;21.15;;
68192;SDS011;55012;47.562;18.414;2022-12-10T04:24:04;69.70;;;20.90;;
68192;SDS011;55012;47.562;18.414;2022-12-10T04:26:48;80.60;;;21.73;;
68192;SDS011;55012;47.562;18.414;2022-12-10T04:29:17;76.25;;;21.15;;
68192;SDS011;55012;47.562;18.414;2022-12-10T04:31:43;73.47;;;21.30;;
68192;SDS011;55012;47.562;18.414;2022-12-10T04:34:08;68.13;;;21.95;;
68192;SDS011;55012;47.562;18.414;2022-12-10T04:36:34;66.75;;;19.35;;
68192;SDS011;55012;47.562;18.414;2022-12-10T04:38:59;51.88;;;16.92;;
68192;SDS011;55012;47.562;18.414;2022-12-10T04:41:25;64.82;;;18.38;;
68192;SDS011;55012;47.562;18.414;2022-12-10T04:43:51;78.07;;;20.35;;
68192;SDS011;55012;47.562;18.414;2022-12-10T04:46:17;83.78;;;22.58;;
68192;SDS011;55012;47.562;18.414;2022-12-10T04:48:43;65.88;;;20.92;;
68192;SDS011;55012;47.562;18.414;2022-12-10T04:51:08;76.53;;;21.65;;
68192;SDS011;55012;47.562;18.414;2022-12-10T04:53:34;63.42;;;20.02;;
68192;SDS011;55012;47.562;18.414;2022-12-10T04:55:59;77.43;;;22.20;;
68192;SDS011;55012;47.562;18.414;2022-12-10T04:58:26;80.05;;;22.02;;
68192;SDS011;55012;47.562;18.414;2022-12-10T05:01:00;78.28;;;21.38;;
68192;SDS011;55012;47.562;18.414;2022-12-10T05:03:29;71.95;;;20.90;;
68192;SDS011;55012;47.562;18.414;2022-12-10T05:05:55;72.00;;;20.30;;
68192;SDS011;55012;47.562;18.414;2022-12-10T05:08:25;64.57;;;19.23;;
68192;SDS011;55012;47.562;18.414;2022-12-10T05:10:50;75.45;;;22.30;;
68192;SDS011;55012;47.562;18.414;2022-12-10T05:13:15;64.25;;;20.65;;
68192;SDS011;55012;47.562;18.414;2022-12-10T05:15:41;62.08;;;18.90;;
68192;SDS011;55012;47.562;18.414;2022-12-10T05:18:06;62.13;;;19.40;;
68192;SDS011;55012;47.562;18.414;2022-12-10T05:20:32;57.17;;;18.40;;
68192;SDS011;55012;47.562;18.414;2022-12-10T05:22:57;58.95;;;18.83;;
68192;SDS011;55012;47.562;18.414;2022-12-10T05:25:41;66.93;;;20.35;;
68192;SDS011;55012;47.562;18.414;2022-12-10T05:28:20;72.35;;;21.05;;
68192;SDS011;55012;47.562;18.414;2022-12-10T05:30:49;60.97;;;20.42;;
68192;SDS011;55012;47.562;18.414;2022-12-10T05:33:15;71.68;;;22.65;;
68192;SDS011;55012;47.562;18.414;2022-12-10T05:35:40;61.15;;;21.17;;
68192;SDS011;55012;47.562;18.414;2022-12-10T05:38:06;43.75;;;17.08;;
68192;SDS011;55012;47.562;18.414;2022-12-10T05:40:35;51.78;;;19.48;;
68192;SDS011;55012;47.562;18.414;2022-12-10T05:43:04;57.10;;;20.17;;
68192;SDS011;55012;47.562;18.414;2022-12-10T05:45:31;58.50;;;19.55;;
68192;SDS011;55012;47.562;18.414;2022-12-10T05:47:57;61.33;;;22.08;;
68192;SDS011;55012;47.562;18.414;2022-12-10T05:50:23;52.25;;;19.13;;
68192;SDS011;55012;47.562;18.414;2022-12-10T05:52:49;56.03;;;20.27;;
68192;SDS011;55012;47.562;18.414;2022-12-10T05:55:16;50.45;;;17.40;;
68192;SDS011;55012;47.562;18.414;2022-12-10T05:57:41;55.95;;;20.40;;
68192;SDS011;55012;47.562;18.414;2022-12-10T06:00:07;48.92;;;18.50;;
68192;SDS011;55012;47.562;18.414;2022-12-10T06:02:33;49.70;;;18.58;;
68192;SDS011;55012;47.562;18.414;2022-12-10T06:04:58;58.28;;;21.65;;
68192;SDS011;55012;47.562;18.414;2022-12-10T06:07:24;48.13;;;18.17;;
68192;SDS011;55012;47.562;18.414;2022-12-10T06:09:50;57.60;;;21.42;;
68192;SDS011;55012;47.562;18.414;2022-12-10T06:12:15;61.08;;;21.33;;
68192;SDS011;55012;47.562;18.414;2022-12-10T06:14:41;53.38;;;20.52;;
68192;SDS011;55012;47.562;18.414;2022-12-10T06:17:06;55.80;;;20.92;;
68192;SDS011;55012;47.562;18.414;2022-12-10T06:19:32;51.95;;;19.50;;
68192;SDS011;55012;47.562;18.414;2022-12-10T06:21:57;44.22;;;17.50;;
68192;SDS011;55012;47.562;18.414;2022-12-10T06:24:23;49.63;;;19.35;;
68192;SDS011;55012;47.562;18.414;2022-12-10T06:26:49;52.60;;;18.58;;
68192;SDS011;55012;47.562;18.414;2022-12-10T06:29:14;51.17;;;20.38;;
68192;SDS011;55012;47.562;18.414;2022-12-10T06:31:40;46.30;;;18.35;;
68192;SDS011;55012;47.562;18.414;2022-12-10T06:34:05;55.20;;;19.92;;
68192;SDS011;55012;47.562;18.414;2022-12-10T06:36:31;54.38;;;20.48;;
68192;SDS011;55012;47.562;18.414;2022-12-10T06:38:56;53.13;;;20.05;;
68192;SDS011;55012;47.562;18.414;2022-12-10T06:41:22;55.97;;;20.13;;
68192;SDS011;55012;47.562;18.414;2022-12-10T06:43:48;52.90;;;19.73;;
68192;SDS011;55012;47.562;18.414;2022-12-10T06:46:14;47.33;;;18.33;;
68192;SDS011;55012;47.562;18.414;2022-12-10T06:48:42;51.85;;;18.42;;
68192;SDS011;55012;47.562;18.414;2022-12-10T06:51:08;41.95;;;16.48;;
68192;SDS011;55012;47.562;18.414;2022-12-10T06:53:36;40.25;;;15.30;;
68192;SDS011;55012;47.562;18.414;2022-12-10T06:56:02;47.90;;;17.60;;
68192;SDS011;55012;47.562;18.414;2022-12-10T06:58:29;38.95;;;15.48;;
68192;SDS011;55012;47.562;18.414;2022-12-10T07:01:03;43.28;;;16.15;;
68192;SDS011;55012;47.562;18.414;2022-12-10T07:03:29;42.33;;;16.63;;
68192;SDS011;55012;47.562;18.414;2022-12-10T07:05:56;39.63;;;16.13;;
68192;SDS011;55012;47.562;18.414;2022-12-10T07:08:23;40.53;;;15.57;;
68192;SDS011;55012;47.562;18.414;2022-12-10T07:10:48;40.95;;;17.20;;
68192;SDS011;55012;47.562;18.414;2022-12-10T07:13:14;36.40;;;15.48;;
68192;SDS011;55012;47.562;18.414;2022-12-10T07:15:39;40.53;;;15.88;;
68192;SDS011;55012;47.562;18.414;2022-12-10T07:18:04;36.67;;;14.27;;
68192;SDS011;55012;47.562;18.414;2022-12-10T07:20:30;41.33;;;15.88;;
68192;SDS011;55012;47.562;18.414;2022-12-10T07:22:55;40.03;;;16.65;;
68192;SDS011;55012;47.562;18.414;2022-12-10T07:25:21;31.38;;;13.18;;
68192;SDS011;55012;47.562;18.414;2022-12-10T07:27:46;37.85;;;14.45;;
68192;SDS011;55012;47.562;18.414;2022-12-10T07:30:12;35.97;;;14.05;;
68192;SDS011;55012;47.562;18.414;2022-12-10T07:32:37;42.10;;;16.50;;
68192;SDS011;55012;47.562;18.414;2022-12-10T07:35:03;42.63;;;16.33;;
68192;SDS011;55012;47.562;18.414;2022-12-10T07:37:30;43.25;;;16.92;;
68192;SDS011;55012;47.562;18.414;2022-12-10T07:39:55;49.40;;;18.50;;
68192;SDS011;55012;47.562;18.414;2022-12-10T07:42:21;49.35;;;18.90;;
68192;SDS011;55012;47.562;18.414;2022-12-10T07:44:47;53.03;;;21.30;;
68192;SDS011;55012;47.562;18.414;2022-12-10T07:47:13;42.92;;;18.27;;
68192;SDS011;55012;47.562;18.414;2022-12-10T07:49:39;44.30;;;17.10;;
68192;SDS011;55012;47.562;18.414;2022-12-10T07:52:04;40.75;;;15.55;;
68192;SDS011;55012;47.562;18.414;2022-12-10T07:54:30;45.97;;;18.52;;
68192;SDS011;55012;47.562;18.414;2022-12-10T07:56:55;47.42;;;18.77;;
68192;SDS011;55012;47.562;18.414;2022-12-10T07:59:21;46.63;;;19.08;;
68192;SDS011;55012;47.562;18.414;2022-12-10T08:01:46;43.15;;;17.75;;
68192;SDS011;55012;47.562;18.414;2022-12-10T08:04:12;42.17;;;18.63;;
68192;SDS011;55012;47.562;18.414;2022-12-10T08:06:38;45.95;;;18.13;;
68192;SDS011;55012;47.562;18.414;2022-12-10T08:09:03;42.00;;;19.20;;
68192;SDS011;55012;47.562;18.414;2022-12-10T08:11:29;45.42;;;18.55;;
68192;SDS011;55012;47.562;18.414;2022-12-10T08:13:54;40.08;;;17.20;;
68192;SDS011;55012;47.562;18.414;2022-12-10T08:16:21;44.65;;;19.13;;
68192;SDS011;55012;47.562;18.414;2022-12-10T08:18:50;46.03;;;18.90;;
68192;SDS011;55012;47.562;18.414;2022-12-10T08:21:16;44.53;;;18.05;;
68192;SDS011;55012;47.562;18.414;2022-12-10T08:23:44;43.63;;;17.30;;
68192;SDS011;55012;47.562;18.414;2022-12-10T08:26:12;45.35;;;18.58;;
68192;SDS011;55012;47.562;18.414;2022-12-10T08:28:39;47.15;;;19.10;;
68192;SDS011;55012;47.562;18.414;2022-12-10T08:31:06;46.15;;;18.38;;
68192;SDS011;55012;47.562;18.414;2022-12-10T08:33:33;50.00;;;17.80;;
68192;SDS011;55012;47.562;18.414;2022-12-10T08:36:02;47.45;;;19.63;;
68192;SDS011;55012;47.562;18.414;2022-12-10T08:38:29;46.17;;;19.35;;
68192;SDS011;55012;47.562;18.414;2022-12-10T08:40:54;41.75;;;17.42;;
68192;SDS011;55012;47.562;18.414;2022-12-10T08:43:22;46.38;;;19.52;;
68192;SDS011;55012;47.562;18.414;2022-12-10T08:45:51;44.97;;;19.20;;
68192;SDS011;55012;47.562;18.414;2022-12-10T08:48:16;47.00;;;19.63;;
68192;SDS011;55012;47.562;18.414;2022-12-10T08:50:41;49.47;;;19.15;;
68192;SDS011;55012;47.562;18.414;2022-12-10T08:53:07;46.67;;;20.17;;
68192;SDS011;55012;47.562;18.414;2022-12-10T08:55:32;52.60;;;21.13;;
68192;SDS011;55012;47.562;18.414;2022-12-10T08:57:59;46.17;;;19.23;;
68192;SDS011;55012;47.562;18.414;2022-12-10T09:00:24;49.13;;;20.30;;
68192;SDS011;55012;47.562;18.414;2022-12-10T09:02:51;52.03;;;21.00;;
68192;SDS011;55012;47.562;18.414;2022-12-10T09:05:16;48.47;;;19.92;;
68192;SDS011;55012;47.562;18.414;2022-12-10T09:07:42;48.10;;;19.80;;
68192;SDS011;55012;47.562;18.414;2022-12-10T09:10:09;53.75;;;22.20;;
68192;SDS011;55012;47.562;18.414;2022-12-10T09:12:36;53.13;;;20.40;;
68192;SDS011;55012;47.562;18.414;2022-12-10T09:15:02;47.65;;;19.30;;
68192;SDS011;55012;47.562;18.414;2022-12-10T09:17:29;43.35;;;17.65;;
68192;SDS011;55012;47.562;18.414;2022-12-10T09:19:54;41.67;;;15.85;;
68192;SDS011;55012;47.562;18.414;2022-12-10T09:22:20;50.78;;;19.52;;
68192;SDS011;55012;47.562;18.414;2022-12-10T09:24:45;47.80;;;19.73;;
68192;SDS011;55012;47.562;18.414;2022-12-10T09:27:11;50.00;;;20.38;;
68192;SDS011;55012;47.562;18.414;2022-12-10T09:29:36;48.30;;;18.83;;
68192;SDS011;55012;47.562;18.414;2022-12-10T09:32:02;51.10;;;19.83;;
68192;SDS011;55012;47.562;18.414;2022-12-10T09:34:28;49.63;;;20.23;;
68192;SDS011;55012;47.562;18.414;2022-12-10T09:36:53;51.50;;;20.30;;
68192;SDS011;55012;47.562;18.414;2022-12-10T09:39:19;51.45;;;20.15;;
68192;SDS011;55012;47.562;18.414;2022-12-10T09:41:54;55.78;;;20.77;;
68192;SDS011;55012;47.562;18.414;2022-12-10T09:47:02;51.67;;;20.08;;
68192;SDS011;55012;47.562;18.414;2022-12-10T09:52:11;53.88;;;22.52;;
68192;SDS011;55012;47.562;18.414;2022-12-10T09:54:43;51.15;;;20.08;;
68192;SDS011;55012;47.562;18.414;2022-12-10T10:00:17;64.68;;;24.20;;
68192;SDS011;55012;47.562;18.414;2022-12-10T10:02:58;48.30;;;19.83;;
68192;SDS011;55012;47.562;18.414;2022-12-10T10:05:29;61.83;;;23.17;;
68192;SDS011;55012;47.562;18.414;2022-12-10T10:07:57;55.85;;;21.58;;
68192;SDS011;55012;47.562;18.414;2022-12-10T10:10:39;55.47;;;22.05;;
68192;SDS011;55012;47.562;18.414;2022-12-10T10:15:35;57.38;;;22.77;;
68192;SDS011;55012;47.562;18.414;2022-12-10T10:18:04;59.45;;;23.35;;
68192;SDS011;55012;47.562;18.414;2022-12-10T10:20:39;62.47;;;25.00;;
68192;SDS011;55012;47.562;18.414;2022-12-10T10:23:05;56.17;;;21.85;;
68192;SDS011;55012;47.562;18.414;2022-12-10T10:25:31;57.03;;;23.00;;
68192;SDS011;55012;47.562;18.414;2022-12-10T10:27:56;50.78;;;20.08;;
68192;SDS011;55012;47.562;18.414;2022-12-10T10:30:22;54.70;;;22.17;;
68192;SDS011;55012;47.562;18.414;2022-12-10T10:32:50;55.35;;;22.42;;
68192;SDS011;55012;47.562;18.414;2022-12-10T10:35:28;48.63;;;21.08;;
68192;SDS011;55012;47.562;18.414;2022-12-10T10:38:06;57.75;;;23.30;;
68192;SDS011;55012;47.562;18.414;2022-12-10T10:40:45;54.28;;;22.52;;
68192;SDS011;55012;47.562;18.414;2022-12-10T10:43:24;59.70;;;23.40;;
68192;SDS011;55012;47.562;18.414;2022-12-10T10:45:58;51.03;;;21.10;;
68192;SDS011;55012;47.562;18.414;2022-12-10T10:48:26;55.42;;;22.63;;
68192;SDS011;55012;47.562;18.414;2022-12-10T10:50:54;58.45;;;23.15;;
68192;SDS011;55012;47.562;18.414;2022-12-10T10:53:51;59.05;;;23.25;;
68192;SDS011;55012;47.562;18.414;2022-12-10T10:56:32;53.00;;;21.80;;
68192;SDS011;55012;47.562;18.414;2022-12-10T11:01:48;47.60;;;20.48;;
68192;SDS011;55012;47.562;18.414;2022-12-10T11:06:45;40.22;;;18.20;;
68192;SDS011;55012;47.562;18.414;2022-12-10T11:09:21;43.20;;;18.85;;
68192;SDS011;55012;47.562;18.414;2022-12-10T11:11:50;49.35;;;20.80;;
68192;SDS011;55012;47.562;18.414;2022-12-10T11:14:23;53.08;;;21.85;;
68192;SDS011;55012;47.562;18.414;2022-12-10T11:20:19;43.45;;;18.33;;
68192;SDS011;55012;47.562;18.414;2022-12-10T11:22:38;47.30;;;19.55;;
68192;SDS011;55012;47.562;18.414;2022-12-10T11:25:31;46.42;;;19.05;;
68192;SDS011;55012;47.562;18.414;2022-12-10T11:30:47;44.92;;;18.25;;
68192;SDS011;55012;47.562;18.414;2022-12-10T11:33:41;41.20;;;16.95;;
68192;SDS011;55012;47.562;18.414;2022-12-10T11:57:46;51.75;;;19.75;;
68192;SDS011;55012;47.562;18.414;2022-12-10T12:00:22;44.85;;;19.08;;
68192;SDS011;55012;47.562;18.414;2022-12-10T12:16:09;42.72;;;17.95;;
68192;SDS011;55012;47.562;18.414;2022-12-10T12:18:45;42.55;;;17.58;;
68192;SDS011;55012;47.562;18.414;2022-12-10T12:21:16;39.75;;;17.08;;
68192;SDS011;55012;47.562;18.414;2022-12-10T12:23:45;44.03;;;17.33;;
68192;SDS011;55012;47.562;18.414;2022-12-10T12:26:17;41.58;;;18.13;;
68192;SDS011;55012;47.562;18.414;2022-12-10T12:28:51;43.13;;;18.33;;
68192;SDS011;55012;47.562;18.414;2022-12-10T12:34:43;45.72;;;18.75;;
68192;SDS011;55012;47.562;18.414;2022-12-10T12:37:21;54.28;;;20.30;;
68192;SDS011;55012;47.562;18.414;2022-12-10T12:40:00;55.03;;;21.85;;
68192;SDS011;55012;47.562;18.414;2022-12-10T12:42:38;51.20;;;19.92;;
68192;SDS011;55012;47.562;18.414;2022-12-10T12:45:21;50.15;;;20.15;;
68192;SDS011;55012;47.562;18.414;2022-12-10T12:53:25;51.03;;;21.85;;
68192;SDS011;55012;47.562;18.414;2022-12-10T12:55:56;48.03;;;19.80;;
68192;SDS011;55012;47.562;18.414;2022-12-10T13:04:12;54.88;;;22.45;;
68192;SDS011;55012;47.562;18.414;2022-12-10T13:06:40;58.67;;;23.17;;
68192;SDS011;55012;47.562;18.414;2022-12-10T13:11:38;58.38;;;21.80;;
68192;SDS011;55012;47.562;18.414;2022-12-10T13:14:11;62.05;;;24.23;;
68192;SDS011;55012;47.562;18.414;2022-12-10T13:17:40;54.28;;;21.67;;
68192;SDS011;55012;47.562;18.414;2022-12-10T13:20:24;52.08;;;20.98;;
68192;SDS011;55012;47.562;18.414;2022-12-10T13:22:55;49.80;;;20.20;;
68192;SDS011;55012;47.562;18.414;2022-12-10T13:25:37;55.20;;;22.48;;
68192;SDS011;55012;47.562;18.414;2022-12-10T13:36:28;66.95;;;24.70;;
68192;SDS011;55012;47.562;18.414;2022-12-10T13:39:31;61.22;;;23.30;;
68192;SDS011;55012;47.562;18.414;2022-12-10T13:45:35;70.25;;;22.90;;
68192;SDS011;55012;47.562;18.414;2022-12-10T13:56:08;62.75;;;21.55;;
68192;SDS011;55012;47.562;18.414;2022-12-10T14:01:32;71.90;;;24.10;;
68192;SDS011;55012;47.562;18.414;2022-12-10T14:04:05;67.28;;;23.75;;
68192;SDS011;55012;47.562;18.414;2022-12-10T14:06:42;64.40;;;23.45;;
68192;SDS011;55012;47.562;18.414;2022-12-10T14:09:11;67.10;;;22.70;;
68192;SDS011;55012;47.562;18.414;2022-12-10T14:12:03;73.47;;;23.70;;
68192;SDS011;55012;47.562;18.414;2022-12-10T14:14:50;61.05;;;20.67;;
68192;SDS011;55012;47.562;18.414;2022-12-10T14:17:23;62.45;;;22.15;;
68192;SDS011;55012;47.562;18.414;2022-12-10T14:19:55;70.38;;;24.58;;
68192;SDS011;55012;47.562;18.414;2022-12-10T14:23:03;66.53;;;22.58;;
68192;SDS011;55012;47.562;18.414;2022-12-10T14:25:12;71.40;;;23.23;;
68192;SDS011;55012;47.562;18.414;2022-12-10T14:27:40;70.82;;;24.48;;
68192;SDS011;55012;47.562;18.414;2022-12-10T14:30:19;70.03;;;25.13;;
68192;SDS011;55012;47.562;18.414;2022-12-10T14:32:47;68.03;;;23.90;;
68192;SDS011;55012;47.562;18.414;2022-12-10T14:35:24;76.07;;;25.17;;
68192;SDS011;55012;47.562;18.414;2022-12-10T14:37:53;66.55;;;23.73;;
68192;SDS011;55012;47.562;18.414;2022-12-10T14:40:31;68.50;;;23.77;;
68192;SDS011;55012;47.562;18.414;2022-12-10T14:43:13;59.95;;;21.02;;
68192;SDS011;55012;47.562;18.414;2022-12-10T14:45:53;70.78;;;24.52;;
68192;SDS011;55012;47.562;18.414;2022-12-10T14:48:25;65.35;;;22.63;;
68192;SDS011;55012;47.562;18.414;2022-12-10T14:50:51;69.85;;;23.75;;
68192;SDS011;55012;47.562;18.414;2022-12-10T14:53:19;68.00;;;26.10;;
68192;SDS011;55012;47.562;18.414;2022-12-10T14:55:49;68.57;;;23.88;;
68192;SDS011;55012;47.562;18.414;2022-12-10T14:58:42;69.30;;;24.73;;
68192;SDS011;55012;47.562;18.414;2022-12-10T15:01:26;69.22;;;25.33;;
68192;SDS011;55012;47.562;18.414;2022-12-10T15:03:58;74.57;;;26.40;;
68192;SDS011;55012;47.562;18.414;2022-12-10T15:06:26;75.63;;;25.48;;
68192;SDS011;55012;47.562;18.414;2022-12-10T15:08:54;78.03;;;27.73;;
68192;SDS011;55012;47.562;18.414;2022-12-10T15:11:23;70.15;;;25.27;;
68192;SDS011;55012;47.562;18.414;2022-12-10T15:14:00;76.57;;;27.58;;
68192;SDS011;55012;47.562;18.414;2022-12-10T15:21:56;61.30;;;20.90;;
68192;SDS011;55012;47.562;18.414;2022-12-10T15:24:32;64.97;;;23.95;;
68192;SDS011;55012;47.562;18.414;2022-12-10T15:27:02;70.15;;;23.15;;
68192;SDS011;55012;47.562;18.414;2022-12-10T15:29:40;66.72;;;22.98;;
68192;SDS011;55012;47.562;18.414;2022-12-10T15:32:16;72.35;;;25.20;;
68192;SDS011;55012;47.562;18.414;2022-12-10T15:34:48;77.13;;;26.88;;
68192;SDS011;55012;47.562;18.414;2022-12-10T15:37:22;64.80;;;21.17;;
68192;SDS011;55012;47.562;18.414;2022-12-10T15:39:52;80.55;;;27.48;;
68192;SDS011;55012;47.562;18.414;2022-12-10T15:47:54;71.43;;;24.77;;
68192;SDS011;55012;47.562;18.414;2022-12-10T15:50:23;69.05;;;23.80;;
68192;SDS011;55012;47.562;18.414;2022-12-10T15:52:50;66.13;;;23.40;;
68192;SDS011;55012;47.562;18.414;2022-12-10T15:55:16;81.40;;;26.85;;
68192;SDS011;55012;47.562;18.414;2022-12-10T15:57:43;90.13;;;29.58;;
68192;SDS011;55012;47.562;18.414;2022-12-10T16:00:29;66.72;;;22.15;;
68192;SDS011;55012;47.562;18.414;2022-12-10T16:02:56;75.13;;;25.55;;
68192;SDS011;55012;47.562;18.414;2022-12-10T16:05:25;76.70;;;27.00;;
68192;SDS011;55012;47.562;18.414;2022-12-10T16:07:54;87.47;;;26.60;;
68192;SDS011;55012;47.562;18.414;2022-12-10T16:10:22;76.30;;;24.02;;
68192;SDS011;55012;47.562;18.414;2022-12-10T16:12:49;88.80;;;26.23;;
68192;SDS011;55012;47.562;18.414;2022-12-10T16:15:29;75.53;;;25.20;;
68192;SDS011;55012;47.562;18.414;2022-12-10T16:18:00;77.82;;;26.02;;
68192;SDS011;55012;47.562;18.414;2022-12-10T16:20:28;76.40;;;26.20;;
68192;SDS011;55012;47.562;18.414;2022-12-10T16:22:55;95.10;;;30.67;;
68192;SDS011;55012;47.562;18.414;2022-12-10T16:25:23;91.03;;;29.02;;
68192;SDS011;55012;47.562;18.414;2022-12-10T16:27:53;82.15;;;27.13;;
68192;SDS011;55012;47.562;18.414;2022-12-10T16:30:20;96.68;;;30.08;;
68192;SDS011;55012;47.562;18.414;2022-12-10T16:32:48;81.57;;;27.02;;